Search for airport 
image banner adimage banner adimage banner ad
image banner ad

PA48 - Holy Spirit A Geisinger Affiliate

Located in Harrisburg, United States

ICAO - PA48, IATA -

Data provided by Airmate  

General information

Coordinates: N40°15'8" W76°55'15"
Elevation is 486 feet MSL.
 
View others Airports in Pennsylvania

Operational data

Special qualification required
Current time UTC:
Current local time:
Weather at : KCXY - Capital City ( 7 km )
METAR: KCXY 091156Z 26005KT 10SM BKN110 08/02 A3011 RMK AO2 SLP200 70002 T00780017 10078 20050 51007 $
View NOTAMs / SUP AIP / TFR affecting this airport [VIEW]
Communications frequencies: [VIEW]

Runways:

Airport contact information

Address: Harrisburg United States

Satellite view of PA48